createdAt,value
2023-01-01T00:01:50.598Z,10.22
2023-01-01T00:04:18.720Z,10.33
2023-01-01T00:06:46.488Z,10.44
2023-01-01T00:09:33.031Z,10.32
2023-01-01T00:12:02.059Z,10.06
2023-01-01T00:14:30.240Z,9.97
2023-01-01T00:16:58.087Z,9.82
2023-01-01T00:19:26.851Z,9.89
2023-01-01T00:21:55.205Z,9.77
2023-01-01T00:24:23.256Z,9.94
2023-01-01T00:26:50.937Z,10.11
2023-01-01T00:29:19.950Z,10.25
2023-01-01T00:31:48.239Z,10.31
2023-01-01T00:34:15.999Z,10.42
2023-01-01T00:36:44.380Z,10.51
2023-01-01T00:39:12.064Z,10.48
2023-01-01T00:41:39.751Z,10.41
2023-01-01T00:44:07.586Z,10.32
2023-01-01T00:46:36.945Z,10.27
2023-01-01T00:49:04.654Z,10.15
2023-01-01T00:51:36.972Z,9.97
2023-01-01T00:54:05.090Z,9.58
2023-01-01T00:56:33.055Z,9.58
2023-01-01T00:59:01.801Z,9.60
2023-01-01T01:01:30.046Z,9.46
2023-01-01T01:03:59.159Z,9.28
2023-01-01T01:06:27.371Z,8.99
2023-01-01T01:08:55.040Z,8.87
2023-01-01T01:11:25.385Z,8.77
2023-01-01T01:13:55.966Z,8.69
2023-01-01T01:16:27.335Z,8.66
2023-01-01T01:18:57.569Z,8.67
2023-01-01T01:21:28.354Z,8.61
2023-01-01T01:23:58.065Z,8.54
2023-01-01T01:26:28.774Z,8.47
2023-01-01T01:28:57.486Z,8.48
2023-01-01T01:31:28.345Z,8.48
2023-01-01T01:33:57.190Z,8.49
2023-01-01T01:36:26.880Z,8.57
2023-01-01T01:38:54.810Z,8.55
2023-01-01T01:41:28.264Z,8.64
2023-01-01T01:43:59.635Z,8.62
2023-01-01T01:46:34.249Z,8.64
2023-01-01T01:49:06.085Z,8.62
2023-01-01T01:51:38.339Z,8.61
2023-01-01T01:54:11.821Z,8.65
2023-01-01T01:56:46.583Z,8.84
2023-01-01T01:59:14.981Z,9.03
2023-01-01T02:01:43.569Z,9.32
2023-01-01T02:04:12.989Z,9.69
2023-01-01T02:06:42.908Z,10.35
2023-01-01T02:09:10.983Z,10.90
2023-01-01T02:11:39.445Z,11.38
2023-01-01T02:14:07.595Z,11.74
2023-01-01T02:16:40.952Z,12.09
2023-01-01T02:19:18.177Z,12.38
2023-01-01T02:22:00.766Z,12.51
2023-01-01T02:24:53.727Z,12.51
2023-01-01T02:27:30.332Z,12.45
2023-01-01T02:30:03.104Z,12.51
2023-01-01T02:32:37.586Z,12.65
2023-01-01T02:35:23.424Z,12.71
2023-01-01T02:37:54.750Z,12.82
2023-01-01T02:40:24.781Z,12.77
2023-01-01T02:42:54.692Z,12.68
2023-01-01T02:45:24.106Z,12.66
2023-01-01T02:47:52.327Z,12.58
2023-01-01T02:50:23.345Z,12.55
2023-01-01T02:53:03.080Z,12.58
2023-01-01T02:55:38.626Z,12.58
2023-01-01T02:58:32.289Z,12.35
2023-01-01T03:01:12.736Z,11.71
2023-01-01T03:03:46.084Z,11.27
2023-01-01T03:06:27.367Z,10.94
2023-01-01T03:09:08.726Z,10.37
2023-01-01T03:11:45.371Z,10.10
2023-01-01T03:14:19.978Z,9.91
2023-01-01T03:16:52.395Z,9.68
2023-01-01T03:19:22.809Z,9.61
2023-01-01T03:21:53.078Z,9.51
2023-01-01T03:24:25.434Z,9.50
2023-01-01T03:26:57.452Z,9.46
2023-01-01T03:29:28.368Z,9.40
2023-01-01T03:32:01.341Z,9.42
2023-01-01T03:34:34.593Z,9.45
2023-01-01T03:37:06.746Z,9.44
2023-01-01T03:39:39.143Z,9.45
2023-01-01T03:42:16.475Z,9.43
2023-01-01T03:44:48.844Z,9.31
2023-01-01T03:47:18.549Z,9.29
2023-01-01T03:49:49.581Z,9.18
2023-01-01T03:52:29.156Z,9.19
2023-01-01T03:55:05.469Z,9.19
2023-01-01T03:57:41.415Z,9.17
2023-01-01T04:00:16.265Z,9.16
2023-01-01T04:02:51.021Z,9.17
2023-01-01T04:05:20.769Z,9.01
2023-01-01T04:07:52.916Z,9.41
2023-01-01T04:10:21.206Z,9.82
2023-01-01T04:12:51.597Z,10.31
2023-01-01T04:15:21.276Z,10.82
2023-01-01T04:17:50.925Z,11.11
2023-01-01T04:20:18.855Z,11.15
2023-01-01T04:22:47.649Z,11.09
2023-01-01T04:25:17.361Z,11.08
2023-01-01T04:27:46.535Z,11.22
2023-01-01T04:30:16.056Z,11.41
2023-01-01T04:32:44.112Z,11.66
2023-01-01T04:35:14.675Z,11.73
2023-01-01T04:37:44.943Z,11.71
2023-01-01T04:40:14.895Z,11.78
2023-01-01T04:42:43.659Z,11.85
2023-01-01T04:45:14.899Z,11.82
2023-01-01T04:47:43.315Z,11.95
2023-01-01T04:50:11.201Z,11.97
2023-01-01T04:52:41.013Z,11.98
2023-01-01T04:55:09.371Z,12.04
2023-01-01T04:57:37.490Z,12.13
2023-01-01T05:00:06.113Z,12.27
2023-01-01T05:02:33.876Z,12.25
2023-01-01T05:05:01.709Z,12.21
2023-01-01T05:07:29.387Z,12.18
2023-01-01T05:09:58.748Z,12.26
2023-01-01T05:12:26.388Z,12.10
2023-01-01T05:14:54.412Z,12.04
2023-01-01T05:17:22.088Z,12.04
2023-01-01T05:19:49.927Z,11.91
2023-01-01T05:22:17.578Z,11.94
2023-01-01T05:24:45.565Z,12.08
2023-01-01T05:27:14.892Z,12.20
2023-01-01T05:29:42.889Z,12.39
2023-01-01T05:37:03.983Z,12.60
2023-01-01T05:39:32.274Z,12.69
2023-01-01T05:41:59.927Z,12.79
2023-01-01T05:44:29.991Z,12.80
2023-01-01T05:46:57.998Z,12.82
2023-01-01T05:49:25.677Z,12.86
2023-01-01T05:51:53.335Z,12.89
2023-01-01T05:54:22.159Z,12.77
2023-01-01T05:56:49.809Z,12.58
2023-01-01T05:59:18.225Z,12.45
2023-01-01T06:01:50.264Z,12.09
2023-01-01T06:04:18.884Z,11.75
2023-01-01T06:06:46.589Z,11.04
2023-01-01T06:09:14.869Z,10.66
2023-01-01T06:11:43.557Z,10.51
2023-01-01T06:14:11.560Z,10.50
2023-01-01T06:16:39.442Z,10.62
2023-01-01T06:19:09.037Z,10.78
2023-01-01T06:21:36.696Z,10.94
2023-01-01T06:24:06.028Z,11.07
2023-01-01T06:26:34.309Z,11.20
2023-01-01T06:29:03.036Z,11.30
2023-01-01T06:31:36.813Z,11.27
2023-01-01T06:34:09.742Z,11.17
2023-01-01T06:36:37.507Z,11.14
2023-01-01T06:39:06.039Z,11.16
2023-01-01T06:41:33.773Z,11.18
2023-01-01T06:44:02.321Z,11.15
2023-01-01T06:46:31.734Z,11.09
2023-01-01T06:49:02.648Z,11.08
2023-01-01T06:51:33.463Z,11.10
2023-01-01T06:54:03.973Z,10.96
2023-01-01T06:56:32.913Z,10.96
2023-01-01T06:59:01.500Z,11.04
2023-01-01T07:01:33.237Z,10.99
2023-01-01T07:04:02.384Z,11.01
2023-01-01T07:06:33.548Z,11.03
2023-01-01T07:09:01.231Z,10.87
2023-01-01T07:11:29.991Z,10.62
2023-01-01T07:13:57.659Z,10.36
2023-01-01T07:16:26.252Z,10.05
2023-01-01T07:18:54.131Z,9.81
2023-01-01T07:21:32.337Z,9.45
2023-01-01T07:24:01.304Z,9.14
2023-01-01T07:26:31.698Z,9.10
2023-01-01T07:29:06.894Z,9.05
2023-01-01T07:31:36.517Z,8.94
2023-01-01T07:34:04.309Z,8.91
2023-01-01T07:36:34.532Z,8.84
2023-01-01T07:39:02.210Z,8.81
2023-01-01T07:41:30.280Z,9.08
2023-01-01T07:43:59.823Z,9.31
2023-01-01T07:46:28.533Z,9.46
2023-01-01T07:48:56.509Z,9.68
2023-01-01T07:51:25.405Z,9.92
2023-01-01T07:53:54.422Z,10.11
2023-01-01T07:56:22.431Z,10.27
2023-01-01T07:58:50.119Z,10.45
2023-01-01T08:01:19.228Z,10.40
2023-01-01T08:03:52.667Z,10.30
2023-01-01T08:06:20.746Z,10.41
2023-01-01T08:08:49.064Z,10.47
2023-01-01T08:11:19.232Z,10.52
2023-01-01T08:13:46.863Z,10.52
2023-01-01T08:16:14.886Z,10.64
2023-01-01T08:18:42.617Z,10.58
2023-01-01T08:21:10.687Z,10.51
2023-01-01T08:23:38.340Z,10.65
2023-01-01T08:26:06.616Z,10.76
2023-01-01T08:28:35.612Z,10.94
2023-01-01T08:31:03.656Z,11.06
2023-01-01T08:33:31.359Z,11.24
2023-01-01T08:36:00.150Z,11.36
2023-01-01T08:38:27.890Z,11.52
2023-01-01T08:40:55.904Z,11.69
2023-01-01T08:43:25.409Z,11.86
2023-01-01T08:45:54.984Z,12.20
2023-01-01T08:48:28.870Z,12.67
2023-01-01T08:51:01.398Z,12.88
2023-01-01T08:53:29.895Z,13.66
2023-01-01T08:55:58.677Z,13.77
2023-01-01T08:58:26.509Z,14.01
2023-01-01T09:00:55.637Z,14.99
2023-01-01T09:03:24.042Z,15.88
2023-01-01T09:05:51.773Z,16.66
2023-01-01T09:08:19.811Z,17.03
2023-01-01T09:10:47.814Z,17.44
2023-01-01T09:13:18.927Z,18.50
2023-01-01T09:15:47.086Z,19.86
2023-01-01T09:18:16.889Z,21.08
2023-01-01T09:20:44.653Z,21.93
2023-01-01T09:23:13.163Z,22.98
2023-01-01T09:25:40.841Z,23.48
2023-01-01T09:28:12.256Z,22.61
2023-01-01T09:30:39.946Z,21.08
2023-01-01T09:33:07.636Z,20.24
2023-01-01T09:35:38.495Z,21.02
2023-01-01T09:38:06.763Z,22.21
2023-01-01T09:40:51.377Z,23.17
2023-01-01T09:43:29.631Z,24.01
2023-01-01T09:46:00.726Z,24.22
2023-01-01T09:48:31.853Z,23.88
2023-01-01T09:51:04.363Z,23.79
2023-01-01T09:53:38.199Z,23.74
2023-01-01T09:56:07.120Z,23.70
2023-01-01T09:58:37.881Z,23.96
2023-01-01T10:01:15.726Z,24.15
2023-01-01T10:03:49.578Z,23.66
2023-01-01T10:06:24.983Z,22.47
2023-01-01T10:09:08.708Z,22.25
2023-01-01T10:11:46.795Z,20.64
2023-01-01T10:14:23.361Z,20.15
2023-01-01T10:16:55.265Z,20.07
2023-01-01T10:19:29.720Z,19.95
2023-01-01T10:22:04.913Z,21.31
2023-01-01T10:24:41.363Z,21.85
2023-01-01T10:27:20.239Z,22.85
2023-01-01T10:29:51.261Z,23.21
2023-01-01T10:32:21.991Z,23.42
2023-01-01T10:34:51.671Z,22.65
2023-01-01T10:37:21.684Z,22.21
2023-01-01T10:39:50.676Z,21.70
2023-01-01T10:42:18.448Z,21.18
2023-01-01T10:44:47.675Z,21.48
2023-01-01T10:47:26.323Z,22.12
2023-01-01T10:49:56.976Z,22.10
2023-01-01T10:52:31.556Z,22.47
2023-01-01T10:55:00.772Z,22.97
2023-01-01T10:57:34.915Z,23.39
2023-01-01T11:00:24.132Z,23.30
2023-01-01T11:03:15.401Z,22.78
2023-01-01T11:06:02.829Z,23.10
2023-01-01T11:08:34.275Z,23.70
2023-01-01T11:11:04.105Z,23.69
2023-01-01T11:13:34.552Z,23.64
2023-01-01T11:16:02.907Z,23.55
2023-01-01T11:18:35.952Z,23.35
2023-01-01T11:21:06.687Z,23.41
2023-01-01T11:23:37.853Z,22.36
2023-01-01T11:26:08.229Z,21.41
2023-01-01T11:28:37.292Z,21.83
2023-01-01T11:31:11.407Z,22.05
2023-01-01T11:33:44.555Z,22.09
2023-01-01T11:36:12.957Z,21.55
2023-01-01T11:38:42.166Z,21.28
2023-01-01T11:41:09.918Z,21.51
2023-01-01T11:43:42.004Z,21.94
2023-01-01T11:46:12.803Z,22.00
2023-01-01T11:48:44.552Z,22.31
2023-01-01T11:51:29.884Z,22.50
2023-01-01T11:54:24.191Z,22.89
2023-01-01T11:56:55.802Z,23.11
2023-01-01T11:59:28.773Z,23.59
2023-01-01T12:02:00.282Z,23.89
2023-01-01T12:04:32.524Z,24.13
2023-01-01T12:07:05.700Z,23.90
2023-01-01T12:09:42.119Z,23.76
2023-01-01T12:12:14.205Z,24.13
2023-01-01T12:14:48.042Z,24.36
2023-01-01T12:17:21.035Z,24.75
2023-01-01T12:19:58.116Z,24.99
2023-01-01T12:22:26.902Z,24.90
2023-01-01T12:24:56.654Z,25.17
2023-01-01T12:27:41.636Z,25.77
2023-01-01T12:30:16.823Z,26.32
2023-01-01T12:33:12.193Z,26.54
2023-01-01T12:36:01.974Z,26.37
2023-01-01T12:38:57.287Z,25.73
2023-01-01T12:41:37.057Z,24.89
2023-01-01T12:44:12.516Z,24.37
2023-01-01T12:46:51.832Z,23.66
2023-01-01T12:49:36.019Z,22.75
2023-01-01T12:52:15.687Z,22.38
2023-01-01T12:55:04.066Z,21.77
2023-01-01T12:57:36.895Z,21.36
2023-01-01T13:00:14.134Z,21.07
2023-01-01T13:02:49.367Z,20.79
2023-01-01T13:05:23.632Z,20.54
2023-01-01T13:07:57.111Z,20.50
2023-01-01T13:10:28.951Z,20.29
2023-01-01T13:12:58.206Z,20.13
2023-01-01T13:15:49.096Z,19.97
2023-01-01T13:18:24.736Z,19.85
2023-01-01T13:21:00.202Z,20.15
2023-01-01T13:23:49.371Z,20.59
2023-01-01T13:26:49.295Z,20.66
2023-01-01T13:29:49.610Z,20.55
2023-01-01T13:32:17.791Z,20.34
2023-01-01T13:35:05.606Z,20.01
2023-01-01T13:37:44.973Z,20.00
2023-01-01T13:40:53.457Z,19.99
2023-01-01T13:43:27.640Z,19.82
2023-01-01T13:46:15.267Z,19.87
2023-01-01T13:49:07.383Z,20.03
2023-01-01T13:52:05.405Z,19.85
2023-01-01T13:54:56.131Z,19.72
2023-01-01T13:57:45.492Z,19.59
2023-01-01T14:00:22.277Z,19.51
2023-01-01T14:02:58.978Z,19.47
2023-01-01T14:05:33.641Z,19.53
2023-01-01T14:08:04.273Z,19.56
2023-01-01T14:10:35.206Z,19.46
2023-01-01T14:13:16.375Z,19.41
2023-01-01T14:15:53.430Z,19.23
2023-01-01T14:18:26.892Z,19.10
2023-01-01T14:20:55.164Z,18.96
2023-01-01T14:23:31.097Z,18.84
2023-01-01T14:26:01.172Z,18.80
2023-01-01T14:28:31.496Z,18.57
2023-01-01T14:31:08.626Z,18.53
2023-01-01T14:33:40.628Z,18.36
2023-01-01T14:36:18.990Z,18.40
2023-01-01T14:38:49.501Z,18.31
2023-01-01T14:41:21.393Z,18.27
2023-01-01T14:43:52.048Z,18.20
2023-01-01T14:46:22.092Z,18.11
2023-01-01T14:48:54.303Z,17.99
2023-01-01T14:51:25.085Z,17.87
2023-01-01T14:53:54.830Z,17.75
2023-01-01T14:56:28.365Z,17.67
2023-01-01T14:59:06.267Z,17.51
2023-01-01T15:01:34.080Z,17.34
2023-01-01T15:04:16.861Z,17.23
2023-01-01T15:06:45.684Z,17.19
2023-01-01T15:09:16.877Z,17.09
2023-01-01T15:11:45.088Z,16.94
2023-01-01T15:14:31.742Z,16.82
2023-01-01T15:17:05.167Z,16.66
2023-01-01T15:19:36.497Z,16.58
2023-01-01T15:22:10.852Z,16.48
2023-01-01T15:24:39.587Z,16.29
2023-01-01T15:27:15.378Z,16.08
2023-01-01T15:29:47.537Z,15.91
2023-01-01T15:32:17.287Z,15.71
2023-01-01T15:34:52.425Z,15.54
2023-01-01T15:37:24.041Z,15.46
2023-01-01T15:39:53.772Z,15.38
2023-01-01T15:42:33.588Z,15.29
2023-01-01T15:45:21.081Z,15.16
2023-01-01T15:47:50.855Z,15.06
2023-01-01T15:50:25.229Z,14.93
2023-01-01T15:52:56.779Z,14.79
2023-01-01T15:55:27.255Z,14.77
2023-01-01T15:57:56.338Z,14.65
2023-01-01T16:00:27.084Z,14.51
2023-01-01T16:02:59.498Z,14.41
2023-01-01T16:05:29.033Z,14.27
2023-01-01T16:08:01.964Z,14.15
2023-01-01T16:10:29.738Z,14.00
2023-01-01T16:12:57.925Z,13.83
2023-01-01T16:15:26.241Z,13.64
2023-01-01T16:17:55.610Z,13.53
2023-01-01T16:20:25.313Z,13.54
2023-01-01T16:22:54.695Z,13.27
2023-01-01T16:25:23.730Z,12.81
2023-01-01T16:27:51.703Z,12.50
2023-01-01T16:30:19.476Z,12.31
2023-01-01T16:32:49.342Z,12.24
2023-01-01T16:35:17.134Z,12.08
2023-01-01T16:37:45.511Z,12.00
2023-01-01T16:40:15.372Z,11.92
2023-01-01T16:42:43.131Z,11.79
2023-01-01T16:45:18.733Z,11.65
2023-01-01T16:47:47.125Z,11.55
2023-01-01T16:50:15.008Z,11.60
2023-01-01T16:52:45.200Z,11.57
2023-01-01T16:55:14.875Z,11.58
2023-01-01T16:57:43.776Z,11.56
2023-01-01T17:00:12.937Z,11.53
2023-01-01T17:02:41.445Z,11.49
2023-01-01T17:05:10.487Z,11.27
2023-01-01T17:07:38.184Z,10.93
2023-01-01T17:10:06.868Z,10.71
2023-01-01T17:12:35.887Z,10.72
2023-01-01T17:15:04.020Z,10.68
2023-01-01T17:17:31.751Z,10.45
2023-01-01T17:19:59.669Z,10.36
2023-01-01T17:22:33.922Z,10.16
2023-01-01T17:25:01.969Z,9.97
2023-01-01T17:27:29.602Z,9.90
2023-01-01T17:29:59.172Z,9.73
2023-01-01T17:32:26.885Z,9.86
2023-01-01T17:34:55.770Z,9.86
2023-01-01T17:37:23.456Z,9.86
2023-01-01T17:39:51.778Z,9.95
2023-01-01T17:42:19.485Z,9.98
2023-01-01T17:44:48.115Z,9.97
2023-01-01T17:47:17.149Z,10.07
2023-01-01T17:49:45.566Z,10.19
2023-01-01T17:52:13.232Z,10.29
2023-01-01T17:54:41.390Z,10.29
2023-01-01T17:57:09.004Z,10.28
2023-01-01T17:59:36.837Z,10.25
2023-01-01T18:02:05.870Z,10.20
2023-01-01T18:04:35.582Z,10.14
2023-01-01T18:07:06.379Z,10.10
2023-01-01T18:09:37.099Z,10.02
2023-01-01T18:12:06.226Z,10.02
2023-01-01T18:14:34.270Z,10.04
2023-01-01T18:17:01.947Z,9.97
2023-01-01T18:19:31.017Z,9.84
2023-01-01T18:22:00.035Z,9.70
2023-01-01T18:24:27.702Z,9.55
2023-01-01T18:26:55.348Z,9.48
2023-01-01T18:29:22.990Z,9.32
2023-01-01T18:31:51.446Z,8.96
2023-01-01T18:34:19.903Z,8.96
2023-01-01T18:36:47.734Z,8.84
2023-01-01T18:39:22.559Z,8.75
2023-01-01T18:42:18.730Z,8.73
2023-01-01T18:44:46.620Z,8.77
2023-01-01T18:47:16.398Z,8.85
2023-01-01T18:49:48.833Z,8.94
2023-01-01T18:52:22.406Z,9.00
2023-01-01T18:55:01.981Z,9.08
2023-01-01T18:57:30.319Z,9.15
2023-01-01T19:00:00.547Z,8.79
2023-01-01T19:02:35.219Z,8.67
2023-01-01T19:05:17.002Z,8.58
2023-01-01T19:07:46.534Z,8.46
2023-01-01T19:10:16.442Z,8.39
2023-01-01T19:12:44.534Z,8.33
2023-01-01T19:15:18.221Z,8.30
2023-01-01T19:17:46.452Z,8.19
2023-01-01T19:20:17.950Z,8.09
2023-01-01T19:22:45.817Z,8.20
2023-01-01T19:25:39.403Z,8.35
2023-01-01T19:28:31.252Z,8.37
2023-01-01T19:31:00.491Z,8.36
2023-01-01T19:33:28.748Z,8.32
2023-01-01T19:35:57.921Z,8.31
2023-01-01T19:38:25.583Z,8.20
2023-01-01T19:40:54.585Z,8.09
2023-01-01T19:43:22.423Z,8.16
2023-01-01T19:45:50.931Z,8.28
2023-01-01T19:48:19.192Z,8.36
2023-01-01T19:50:48.188Z,8.43
2023-01-01T19:53:15.981Z,8.49
2023-01-01T19:55:43.858Z,8.57
2023-01-01T19:58:13.086Z,8.57
2023-01-01T20:00:41.015Z,8.58
2023-01-01T20:03:51.674Z,8.56
2023-01-01T20:05:57.429Z,8.46
2023-01-01T20:08:26.855Z,8.31
2023-01-01T20:10:54.853Z,8.16
2023-01-01T20:13:23.966Z,8.06
2023-01-01T20:15:51.707Z,7.95
2023-01-01T20:18:19.511Z,7.89
2023-01-01T20:21:05.641Z,7.75
2023-01-01T20:23:33.320Z,7.89
2023-01-01T20:26:01.687Z,8.15
2023-01-01T20:28:48.502Z,8.37
2023-01-01T20:31:16.612Z,8.66
2023-01-01T20:33:44.595Z,8.57
2023-01-01T20:36:30.614Z,8.73
2023-01-01T20:38:58.456Z,8.96
2023-01-01T20:41:26.120Z,8.46
2023-01-01T20:43:56.598Z,8.48
2023-01-01T20:46:26.931Z,8.21
2023-01-01T20:48:54.799Z,8.04
2023-01-01T20:51:22.844Z,7.84
2023-01-01T20:53:50.533Z,7.69
2023-01-01T20:56:19.291Z,7.61
2023-01-01T20:58:50.271Z,7.56
2023-01-01T21:01:22.110Z,7.51
2023-01-01T21:03:49.828Z,7.46
2023-01-01T21:06:23.775Z,7.44
2023-01-01T21:08:52.357Z,7.45
2023-01-01T21:11:20.327Z,7.43
2023-01-01T21:13:48.893Z,7.41
2023-01-01T21:16:19.108Z,7.41
2023-01-01T21:18:49.285Z,7.46
2023-01-01T21:21:20.205Z,7.52
2023-01-01T21:23:49.231Z,7.42
2023-01-01T21:26:20.334Z,7.48
2023-01-01T21:28:49.099Z,7.12
2023-01-01T21:31:16.775Z,6.83
2023-01-01T21:33:45.869Z,6.83
2023-01-01T21:36:20.048Z,6.77
2023-01-01T21:38:48.651Z,6.73
2023-01-01T21:41:20.648Z,6.23
2023-01-01T21:43:51.938Z,6.33
2023-01-01T21:46:34.578Z,6.43
2023-01-01T21:49:05.294Z,6.60
2023-01-01T21:51:40.605Z,6.73
2023-01-01T21:54:19.387Z,6.94
2023-01-01T21:56:54.149Z,7.03
2023-01-01T21:59:33.003Z,7.10
2023-01-01T22:02:30.064Z,7.30
2023-01-01T22:04:58.002Z,7.43
2023-01-01T22:10:19.509Z,7.60
2023-01-01T22:12:49.285Z,7.67
2023-01-01T22:15:31.320Z,7.65
2023-01-01T22:18:15.755Z,7.76
2023-01-01T22:20:45.319Z,7.59
2023-01-01T22:23:29.884Z,7.59
2023-01-01T22:25:57.582Z,7.48
2023-01-01T22:28:27.606Z,7.33
2023-01-01T22:30:59.236Z,7.20
2023-01-01T22:33:32.590Z,6.72
2023-01-01T22:36:00.277Z,6.67
2023-01-01T22:38:34.428Z,6.55
2023-01-01T22:41:02.895Z,6.55
2023-01-01T22:43:34.576Z,6.36
2023-01-01T22:46:11.015Z,6.37
2023-01-01T22:48:39.931Z,6.21
2023-01-01T22:51:11.761Z,6.31
2023-01-01T22:53:40.821Z,6.39
2023-01-01T22:56:08.901Z,6.43
2023-01-01T22:58:36.804Z,6.48
2023-01-01T23:01:04.564Z,6.52
2023-01-01T23:03:32.536Z,6.46
2023-01-01T23:06:00.784Z,6.41
2023-01-01T23:08:28.588Z,6.36
2023-01-01T23:11:00.609Z,6.39
2023-01-01T23:13:45.778Z,6.20
2023-01-01T23:16:13.613Z,6.16
2023-01-01T23:18:41.705Z,6.11
2023-01-01T23:21:12.019Z,6.13
2023-01-01T23:23:41.060Z,6.22
2023-01-01T23:26:10.625Z,6.03
2023-01-01T23:28:39.964Z,6.02
2023-01-01T23:31:09.769Z,6.06
2023-01-01T23:33:38.402Z,5.98
2023-01-01T23:36:07.225Z,5.76
2023-01-01T23:38:35.624Z,5.26
2023-01-01T23:41:03.286Z,5.45
2023-01-01T23:43:33.655Z,5.44
2023-01-01T23:46:03.424Z,5.28
2023-01-01T23:48:31.344Z,5.25
2023-01-01T23:50:59.564Z,5.21
2023-01-01T23:53:27.219Z,5.37
2023-01-01T23:55:55.316Z,5.46
2023-01-01T23:58:23.134Z,5.64
